createdAt,value
2018-11-23T00:00:22.114Z,18.50
2018-11-23T00:02:51.328Z,19.48
2018-11-23T00:05:20.432Z,19.45
2018-11-23T00:07:49.536Z,19.80
2018-11-23T00:10:20.218Z,19.10
2018-11-23T00:12:49.240Z,18.17
2018-11-23T00:15:19.011Z,19.12
2018-11-23T00:17:47.754Z,19.40
2018-11-23T00:20:17.752Z,19.07
2018-11-23T00:22:46.447Z,19.82
2018-11-23T00:25:16.407Z,20.50
2018-11-23T00:27:45.084Z,20.55
2018-11-23T00:30:15.181Z,20.92
2018-11-23T00:32:44.127Z,21.30
2018-11-23T00:35:15.953Z,22.42
2018-11-23T00:37:45.059Z,21.50
2018-11-23T00:40:18.547Z,22.93
2018-11-23T00:42:47.160Z,22.55
2018-11-23T00:45:15.877Z,23.02
2018-11-23T00:47:45.231Z,23.40
2018-11-23T00:50:15.138Z,23.40
2018-11-23T00:52:44.261Z,22.77
2018-11-23T00:55:14.484Z,23.00
2018-11-23T00:57:43.193Z,23.22
2018-11-23T01:00:16.400Z,23.42
2018-11-23T01:02:45.607Z,24.27
2018-11-23T01:05:15.844Z,24.57
2018-11-23T01:07:44.992Z,23.15
2018-11-23T01:10:15.149Z,24.90
2018-11-23T01:12:44.819Z,23.52
2018-11-23T01:15:13.484Z,23.50
2018-11-23T01:17:42.089Z,23.73
2018-11-23T01:20:18.040Z,23.55
2018-11-23T01:22:46.928Z,24.23
2018-11-23T01:25:16.812Z,24.32
2018-11-23T01:27:46.457Z,24.40
2018-11-23T01:30:19.201Z,24.12
2018-11-23T01:32:47.856Z,24.45
2018-11-23T01:35:16.603Z,25.10
2018-11-23T01:37:46.963Z,25.92
2018-11-23T01:40:16.953Z,26.43
2018-11-23T01:42:45.994Z,24.87
2018-11-23T01:45:14.941Z,25.82
2018-11-23T01:47:43.592Z,26.62
2018-11-23T01:50:17.565Z,27.00
2018-11-23T01:52:47.325Z,27.07
2018-11-23T01:55:16.928Z,26.52
2018-11-23T01:57:45.812Z,27.75
2018-11-23T02:00:17.300Z,27.32
2018-11-23T02:02:46.608Z,27.27
2018-11-23T02:05:15.292Z,28.83
2018-11-23T02:07:43.962Z,28.83
2018-11-23T02:10:13.644Z,29.15
2018-11-23T02:12:42.312Z,28.93
2018-11-23T02:15:13.831Z,29.15
2018-11-23T02:17:42.408Z,28.17
2018-11-23T02:20:12.336Z,29.63
2018-11-23T02:22:40.967Z,28.55
2018-11-23T02:25:09.600Z,29.42
2018-11-23T02:27:38.229Z,29.98
2018-11-23T02:30:13.215Z,30.27
2018-11-23T02:32:42.222Z,29.90
2018-11-23T02:35:10.892Z,29.87
2018-11-23T02:37:39.509Z,30.27
2018-11-23T02:40:09.049Z,29.20
2018-11-23T02:42:38.153Z,30.27
2018-11-23T02:45:09.768Z,29.93
2018-11-23T02:47:38.440Z,29.95
2018-11-23T02:50:07.301Z,30.15
2018-11-23T02:52:35.910Z,30.85
2018-11-23T02:55:04.836Z,30.30
2018-11-23T02:57:33.392Z,30.77
2018-11-23T03:00:02.009Z,28.60
2018-11-23T03:02:30.562Z,28.67
2018-11-23T03:04:59.179Z,30.82
2018-11-23T03:07:27.764Z,30.62
2018-11-23T03:09:56.391Z,29.87
2018-11-23T03:12:24.964Z,29.57
2018-11-23T03:14:53.564Z,31.03
2018-11-23T03:17:22.229Z,30.60
2018-11-23T03:19:50.797Z,30.12
2018-11-23T03:22:19.408Z,31.45
2018-11-23T03:24:48.032Z,31.97
2018-11-23T03:27:16.656Z,30.53
2018-11-23T03:29:45.242Z,29.37
2018-11-23T03:32:13.813Z,30.70
2018-11-23T03:34:42.500Z,30.75
2018-11-23T03:37:11.077Z,31.97
2018-11-23T03:39:39.681Z,31.23
2018-11-23T03:42:08.321Z,31.17
2018-11-23T03:44:36.904Z,31.95
2018-11-23T03:47:05.516Z,31.07
2018-11-23T03:49:34.116Z,30.85
2018-11-23T03:52:02.688Z,31.65
2018-11-23T03:54:31.361Z,31.20
2018-11-23T03:56:59.940Z,31.97
2018-11-23T03:59:28.549Z,30.70
2018-11-23T04:01:57.201Z,31.45
2018-11-23T04:04:25.906Z,31.77
2018-11-23T04:06:54.518Z,30.97
2018-11-23T04:09:23.173Z,31.70
2018-11-23T04:11:51.784Z,31.75
2018-11-23T04:14:21.231Z,31.95
2018-11-23T04:16:49.792Z,31.55
2018-11-23T04:19:18.447Z,32.75
2018-11-23T04:21:47.084Z,32.13
2018-11-23T04:24:15.759Z,31.33
2018-11-23T04:26:44.367Z,31.90
2018-11-23T04:29:12.998Z,31.30
2018-11-23T04:31:41.576Z,30.82
2018-11-23T04:34:10.233Z,31.52
2018-11-23T04:36:38.865Z,32.67
2018-11-23T04:39:08.581Z,31.37
2018-11-23T04:41:37.257Z,31.55
2018-11-23T04:44:06.118Z,30.90
2018-11-23T04:46:34.722Z,31.27
2018-11-23T04:49:03.342Z,31.93
2018-11-23T04:51:31.987Z,32.83
2018-11-23T04:54:00.618Z,31.50
2018-11-23T04:56:29.214Z,31.42
2018-11-23T04:58:57.880Z,31.93
2018-11-23T05:01:26.467Z,30.80
2018-11-23T05:03:55.104Z,31.27
2018-11-23T05:06:23.698Z,31.90
2018-11-23T05:08:52.288Z,31.93
2018-11-23T05:11:20.954Z,32.78
2018-11-23T05:13:49.632Z,32.08
2018-11-23T05:16:18.229Z,31.25
2018-11-23T05:18:46.761Z,31.70
2018-11-23T05:21:16.926Z,31.87
2018-11-23T05:23:45.562Z,32.00
2018-11-23T05:26:14.149Z,31.55
2018-11-23T05:28:42.800Z,31.60
2018-11-23T05:31:11.405Z,30.97
2018-11-23T05:33:40.037Z,31.05
2018-11-23T05:36:08.643Z,31.05
2018-11-23T05:38:37.286Z,30.23
2018-11-23T05:41:06.117Z,32.15
2018-11-23T05:43:34.699Z,31.17
2018-11-23T05:46:03.286Z,31.17
2018-11-23T05:48:31.947Z,31.33
2018-11-23T05:51:00.650Z,31.00
2018-11-23T05:53:29.257Z,31.00
2018-11-23T05:55:57.872Z,31.10
2018-11-23T05:58:26.815Z,30.75
2018-11-23T06:00:55.477Z,31.17
2018-11-23T06:03:24.032Z,31.73
2018-11-23T06:05:52.603Z,31.12
2018-11-23T06:08:21.203Z,31.70
2018-11-23T06:10:49.817Z,30.52
2018-11-23T06:13:18.440Z,31.07
2018-11-23T06:15:47.070Z,30.65
2018-11-23T06:18:15.672Z,32.48
2018-11-23T06:20:44.293Z,31.82
2018-11-23T06:23:13.006Z,31.00
2018-11-23T06:25:47.997Z,30.97
2018-11-23T06:28:16.608Z,30.82
2018-11-23T06:30:45.297Z,30.85
2018-11-23T06:33:27.737Z,31.87
2018-11-23T06:35:56.313Z,31.62
2018-11-23T06:38:24.932Z,30.95
2018-11-23T06:40:53.553Z,29.95
2018-11-23T06:43:22.125Z,32.88
2018-11-23T06:45:50.772Z,31.00
2018-11-23T06:48:19.434Z,30.97
2018-11-23T06:50:48.056Z,32.42
2018-11-23T06:53:16.664Z,31.52
2018-11-23T06:55:45.346Z,31.55
2018-11-23T06:58:14.058Z,31.07
2018-11-23T07:00:43.753Z,28.75
2018-11-23T07:03:12.415Z,30.52
2018-11-23T07:05:41.283Z,30.17
2018-11-23T07:08:10.869Z,29.95
2018-11-23T07:10:39.505Z,30.05
2018-11-23T07:13:08.661Z,30.25
2018-11-23T07:15:37.470Z,31.47
2018-11-23T07:18:06.305Z,30.37
2018-11-23T07:20:34.978Z,30.23
2018-11-23T07:23:03.577Z,30.43
2018-11-23T07:25:32.189Z,30.25
2018-11-23T07:28:00.876Z,30.68
2018-11-23T07:30:29.941Z,31.25
2018-11-23T07:32:59.190Z,29.30
2018-11-23T07:35:27.903Z,30.60
2018-11-23T07:37:56.487Z,29.87
2018-11-23T07:40:39.957Z,30.45
2018-11-23T07:43:08.554Z,30.97
2018-11-23T07:45:37.203Z,30.97
2018-11-23T07:48:06.489Z,30.50
2018-11-23T07:50:35.093Z,30.27
2018-11-23T07:53:03.757Z,29.12
2018-11-23T07:55:32.416Z,29.65
2018-11-23T07:58:01.011Z,30.83
2018-11-23T08:00:29.721Z,29.95
2018-11-23T08:02:58.388Z,29.67
2018-11-23T08:05:28.016Z,29.10
2018-11-23T08:07:56.706Z,28.67
2018-11-23T08:10:24.645Z,29.18
2018-11-23T08:12:53.435Z,30.00
2018-11-23T08:15:23.648Z,29.37
2018-11-23T08:17:52.293Z,29.12
2018-11-23T08:20:22.064Z,29.40
2018-11-23T08:22:50.720Z,28.60
2018-11-23T08:25:20.556Z,28.32
2018-11-23T08:27:50.251Z,29.35
2018-11-23T08:30:21.145Z,28.62
2018-11-23T08:32:49.848Z,29.92
2018-11-23T08:35:18.551Z,29.15
2018-11-23T08:37:47.119Z,27.40
2018-11-23T08:40:17.916Z,28.15
2018-11-23T08:42:47.675Z,28.70
2018-11-23T08:45:17.722Z,29.30
2018-11-23T08:47:46.397Z,28.00
2018-11-23T08:50:19.677Z,29.42
2018-11-23T08:52:48.249Z,28.42
2018-11-23T08:55:17.692Z,28.90
2018-11-23T08:57:46.412Z,28.07
2018-11-23T09:00:19.298Z,26.55
2018-11-23T09:02:49.516Z,27.02
2018-11-23T09:05:18.492Z,27.93
2018-11-23T09:07:48.184Z,27.30
2018-11-23T09:10:18.514Z,26.93
2018-11-23T09:12:48.986Z,26.75
2018-11-23T09:15:17.689Z,27.60
2018-11-23T09:17:46.669Z,26.68
2018-11-23T09:20:16.047Z,26.53
2018-11-23T09:22:44.724Z,26.25
2018-11-23T09:25:14.654Z,26.77
2018-11-23T09:27:43.264Z,27.55
2018-11-23T09:30:16.328Z,26.35
2018-11-23T09:32:45.719Z,26.23
2018-11-23T09:35:14.354Z,26.23
2018-11-23T09:37:43.348Z,25.70
2018-11-23T09:40:14.567Z,27.17
2018-11-23T09:42:43.321Z,25.95
2018-11-23T09:45:15.402Z,25.88
2018-11-23T09:47:44.932Z,26.33
2018-11-23T09:50:14.932Z,25.57
2018-11-23T09:52:43.970Z,26.65
2018-11-23T09:55:12.698Z,25.62
2018-11-23T09:57:41.542Z,24.75
2018-11-23T10:00:15.868Z,25.60
2018-11-23T10:02:45.644Z,25.82
2018-11-23T10:05:14.974Z,25.15
2018-11-23T10:07:44.922Z,24.90
2018-11-23T10:10:14.443Z,24.25
2018-11-23T10:12:43.460Z,25.43
2018-11-23T10:15:13.471Z,25.32
2018-11-23T10:17:42.241Z,25.10
2018-11-23T10:20:15.931Z,25.60
2018-11-23T10:22:44.957Z,24.75
2018-11-23T10:25:14.975Z,23.73
2018-11-23T10:27:44.130Z,23.90
2018-11-23T10:30:17.230Z,24.72
2018-11-23T10:32:46.844Z,24.90
2018-11-23T10:35:15.636Z,24.05
2018-11-23T10:37:45.169Z,23.85
2018-11-23T10:40:16.921Z,24.60
2018-11-23T10:42:45.748Z,24.67
2018-11-23T10:45:17.129Z,24.00
2018-11-23T10:48:33.982Z,23.80
2018-11-23T10:51:02.683Z,22.62
2018-11-23T10:53:31.363Z,23.50
2018-11-23T10:56:00.052Z,23.50
2018-11-23T10:58:28.704Z,22.95
2018-11-23T11:01:02.705Z,23.02
2018-11-23T11:03:33.132Z,22.82
2018-11-23T11:06:12.477Z,23.55
2018-11-23T11:08:41.836Z,22.70
2018-11-23T11:11:13.671Z,22.58
2018-11-23T11:13:39.505Z,22.05
2018-11-23T11:16:08.195Z,23.00
2018-11-23T11:18:36.873Z,22.55
2018-11-23T11:21:05.700Z,22.87
2018-11-23T11:23:35.724Z,22.75
2018-11-23T11:26:04.440Z,22.65
2018-11-23T11:28:33.027Z,23.02
2018-11-23T11:31:01.686Z,23.00
2018-11-23T11:33:30.343Z,23.00
2018-11-23T11:35:59.126Z,24.35
2018-11-23T11:38:27.736Z,22.55
2018-11-23T11:40:56.422Z,22.55
2018-11-23T11:43:25.060Z,23.35
2018-11-23T11:45:53.867Z,23.90
2018-11-23T11:48:22.791Z,23.90
2018-11-23T11:50:51.853Z,23.90
2018-11-23T11:53:20.689Z,24.77
2018-11-23T11:55:49.470Z,23.60
2018-11-23T11:58:18.260Z,23.83
2018-11-23T12:00:47.003Z,22.77
2018-11-23T12:03:15.635Z,24.37
2018-11-23T12:05:44.353Z,25.82
2018-11-23T12:08:13.191Z,24.75
2018-11-23T12:10:41.799Z,24.32
2018-11-23T12:13:10.483Z,24.65
2018-11-23T12:15:39.156Z,25.20
2018-11-23T12:18:07.881Z,24.35
2018-11-23T12:20:36.545Z,24.77
2018-11-23T12:23:05.516Z,24.30
2018-11-23T12:25:34.110Z,26.10
2018-11-23T12:28:02.766Z,24.30
2018-11-23T12:30:32.106Z,24.73
2018-11-23T12:33:00.745Z,25.37
2018-11-23T12:35:29.329Z,24.60
2018-11-23T12:37:57.953Z,24.40
2018-11-23T12:40:26.590Z,23.98
2018-11-23T12:42:55.190Z,25.68
2018-11-23T12:45:24.224Z,24.72
2018-11-23T12:47:52.818Z,25.55
2018-11-23T12:50:22.732Z,25.02
2018-11-23T12:52:51.386Z,26.45
2018-11-23T12:55:20.491Z,26.02
2018-11-23T12:57:49.120Z,24.92
2018-11-23T13:00:23.959Z,26.25
2018-11-23T13:02:56.252Z,26.45
2018-11-23T13:05:25.834Z,26.60
2018-11-23T13:07:55.452Z,26.57
2018-11-23T13:10:25.120Z,26.02
2018-11-23T13:12:54.479Z,26.25
2018-11-23T13:15:23.102Z,26.27
2018-11-23T13:17:51.742Z,27.30
2018-11-23T13:20:20.397Z,26.52
2018-11-23T13:22:49.017Z,26.30
2018-11-23T13:25:19.228Z,27.10
2018-11-23T13:27:47.853Z,26.80
2018-11-23T13:30:23.213Z,26.60
2018-11-23T13:32:52.745Z,28.07
2018-11-23T13:35:21.541Z,28.30
2018-11-23T13:37:50.259Z,27.50
2018-11-23T13:40:20.216Z,28.27
2018-11-23T13:42:49.390Z,26.42
2018-11-23T13:45:19.369Z,26.30
2018-11-23T13:47:48.037Z,27.13
2018-11-23T13:50:18.027Z,27.00
2018-11-23T13:52:47.598Z,27.60
2018-11-23T13:55:16.303Z,26.62
2018-11-23T13:57:44.978Z,28.15
2018-11-23T14:00:16.102Z,26.83
2018-11-23T14:02:45.407Z,27.30
2018-11-23T14:05:15.454Z,27.25
2018-11-23T14:07:45.205Z,26.33
2018-11-23T14:10:15.465Z,26.95
2018-11-23T14:12:44.710Z,26.60
2018-11-23T14:15:18.046Z,26.68
2018-11-23T14:17:47.751Z,27.15
2018-11-23T14:20:17.291Z,28.05
2018-11-23T14:22:46.015Z,29.57
2018-11-23T14:25:20.090Z,26.87
2018-11-23T14:27:49.509Z,26.82
2018-11-23T14:30:21.125Z,27.33
2018-11-23T14:32:49.958Z,27.80
2018-11-23T14:35:21.469Z,27.52
2018-11-23T14:37:50.858Z,26.87
2018-11-23T14:40:19.539Z,27.75
2018-11-23T14:42:49.042Z,27.13
2018-11-23T14:45:25.249Z,27.65
2018-11-23T14:47:54.945Z,28.52
2018-11-23T14:50:26.110Z,28.27
2018-11-23T14:52:55.562Z,28.62
2018-11-23T14:55:24.353Z,28.07
2018-11-23T14:57:53.388Z,27.70
2018-11-23T15:00:25.757Z,27.05
2018-11-23T15:02:55.685Z,28.02
2018-11-23T15:05:24.908Z,27.77
2018-11-23T15:07:53.511Z,28.15
2018-11-23T15:10:23.566Z,27.35
2018-11-23T15:12:53.730Z,28.17
2018-11-23T15:15:24.814Z,27.82
2018-11-23T15:17:54.139Z,28.80
2018-11-23T15:20:25.451Z,27.42
2018-11-23T15:22:57.976Z,27.55
2018-11-23T15:25:26.616Z,27.80
2018-11-23T15:27:55.298Z,27.40
2018-11-23T15:30:25.689Z,27.45
2018-11-23T15:32:54.634Z,28.35
2018-11-23T15:35:23.319Z,27.40
2018-11-23T15:37:52.185Z,28.40
2018-11-23T15:40:23.093Z,28.70
2018-11-23T15:42:55.450Z,28.57
2018-11-23T15:45:25.307Z,29.37
2018-11-23T15:47:54.289Z,28.27
2018-11-23T15:50:24.583Z,28.38
2018-11-23T15:52:53.284Z,29.57
2018-11-23T15:55:24.424Z,29.15
2018-11-23T15:57:54.116Z,28.27
2018-11-23T16:00:25.390Z,28.90
2018-11-23T16:02:54.204Z,28.65
2018-11-23T16:05:23.235Z,28.12
2018-11-23T16:07:53.062Z,29.02
2018-11-23T16:10:24.089Z,28.98
2018-11-23T16:12:54.832Z,28.62
2018-11-23T16:15:23.997Z,28.10
2018-11-23T16:17:53.005Z,27.95
2018-11-23T16:20:24.745Z,28.55
2018-11-23T16:22:54.966Z,29.07
2018-11-23T16:25:23.719Z,27.87
2018-11-23T16:27:53.877Z,29.75
2018-11-23T16:30:25.662Z,28.32
2018-11-23T16:32:55.529Z,28.42
2018-11-23T16:35:26.425Z,29.30
2018-11-23T16:37:56.227Z,29.15
2018-11-23T16:40:26.492Z,28.63
2018-11-23T16:42:55.849Z,28.65
2018-11-23T16:45:27.663Z,29.87
2018-11-23T16:47:57.015Z,29.30
2018-11-23T16:50:26.035Z,29.65
2018-11-23T16:52:54.960Z,29.12
2018-11-23T16:55:24.013Z,29.90
2018-11-23T16:57:55.089Z,28.90
2018-11-23T17:00:25.198Z,30.23
2018-11-23T17:02:54.449Z,29.57
2018-11-23T17:05:26.574Z,30.15
2018-11-23T17:07:55.226Z,30.10
2018-11-23T17:10:23.977Z,30.30
2018-11-23T17:12:52.756Z,30.70
2018-11-23T17:15:22.888Z,30.80
2018-11-23T17:17:52.192Z,30.08
2018-11-23T17:20:24.775Z,29.93
2018-11-23T17:22:54.645Z,29.67
2018-11-23T17:25:24.130Z,31.33
2018-11-23T17:27:53.640Z,30.57
2018-11-23T17:30:24.652Z,30.90
2018-11-23T17:32:54.101Z,30.50
2018-11-23T17:35:22.957Z,31.00
2018-11-23T17:37:51.634Z,31.27
2018-11-23T17:40:21.652Z,30.65
2018-11-23T17:42:50.280Z,31.95
2018-11-23T17:45:20.798Z,31.50
2018-11-23T17:47:49.982Z,32.17
2018-11-23T17:50:21.095Z,32.10
2018-11-23T17:52:50.345Z,30.60
2018-11-23T17:55:19.065Z,31.13
2018-11-23T17:57:48.144Z,32.40
2018-11-23T18:00:20.430Z,31.77
2018-11-23T18:02:50.119Z,31.97
2018-11-23T18:05:19.625Z,31.68
2018-11-23T18:07:48.623Z,30.73
2018-11-23T18:10:19.624Z,31.48
2018-11-23T18:12:48.769Z,33.40
2018-11-23T18:15:19.621Z,31.57
2018-11-23T18:17:49.148Z,30.27
2018-11-23T18:20:19.042Z,32.00
2018-11-23T18:22:48.381Z,31.48
2018-11-23T18:25:19.456Z,32.10
2018-11-23T18:27:48.570Z,31.80
2018-11-23T18:30:17.374Z,32.75
2018-11-23T18:32:46.121Z,32.98
2018-11-23T18:35:15.647Z,32.70
2018-11-23T18:37:44.311Z,32.25
2018-11-23T18:40:13.629Z,33.98
2018-11-23T18:42:42.314Z,32.60
2018-11-23T18:45:12.930Z,32.35
2018-11-23T18:47:42.520Z,32.20
2018-11-23T18:50:15.226Z,32.13
2018-11-23T18:52:44.016Z,31.23
2018-11-23T18:55:18.166Z,31.25
2018-11-23T18:57:44.534Z,32.15
2018-11-23T19:00:14.130Z,32.27
2018-11-23T19:02:43.840Z,30.32
2018-11-23T19:05:13.959Z,33.40
2018-11-23T19:07:42.556Z,32.53
2018-11-23T19:10:12.600Z,32.48
2018-11-23T19:12:41.365Z,33.30
2018-11-23T19:15:11.726Z,32.28
2018-11-23T19:17:40.338Z,32.70
2018-11-23T19:20:14.522Z,31.13
2018-11-23T19:22:44.202Z,31.00
2018-11-23T19:25:12.890Z,30.62
2018-11-23T19:27:41.511Z,30.90
2018-11-23T19:30:12.739Z,31.33
2018-11-23T19:32:41.329Z,31.40
2018-11-23T19:35:09.936Z,30.95
2018-11-23T19:37:38.525Z,30.75
2018-11-23T19:40:09.149Z,31.75
2018-11-23T19:42:37.878Z,31.62
2018-11-23T19:45:08.329Z,30.80
2018-11-23T19:47:37.656Z,32.15
2018-11-23T19:50:12.681Z,31.30
2018-11-23T19:52:42.151Z,32.45
2018-11-23T19:55:12.531Z,31.27
2018-11-23T19:57:41.939Z,31.52
2018-11-23T20:00:17.786Z,31.95
2018-11-23T20:02:46.883Z,30.97
2018-11-23T20:05:16.836Z,31.57
2018-11-23T20:07:47.272Z,32.25
2018-11-23T20:10:18.637Z,31.35
2018-11-23T20:12:49.326Z,31.97
2018-11-23T20:15:19.305Z,32.08
2018-11-23T20:17:48.795Z,33.05
2018-11-23T20:20:18.481Z,31.97
2018-11-23T20:22:48.705Z,32.15
2018-11-23T20:25:19.168Z,32.13
2018-11-23T20:27:49.635Z,32.33
2018-11-23T20:30:19.872Z,32.03
2018-11-23T20:32:49.180Z,32.65
2018-11-23T20:35:20.565Z,32.50
2018-11-23T20:37:49.991Z,31.45
2018-11-23T20:40:20.551Z,33.88
2018-11-23T20:42:50.126Z,33.50
2018-11-23T20:45:19.612Z,33.33
2018-11-23T20:47:48.995Z,32.40
2018-11-23T20:50:19.150Z,31.57
2018-11-23T20:52:48.575Z,32.48
2018-11-23T20:55:21.351Z,31.73
2018-11-23T20:57:51.010Z,32.48
2018-11-23T21:00:21.695Z,31.73
2018-11-23T21:02:52.331Z,32.67
2018-11-23T21:05:22.740Z,32.85
2018-11-23T21:07:52.858Z,33.18
2018-11-23T21:10:24.451Z,32.87
2018-11-23T21:12:54.489Z,32.55
2018-11-23T21:15:26.088Z,32.38
2018-11-23T21:17:55.864Z,32.05
2018-11-23T21:20:25.288Z,32.13
2018-11-23T21:22:54.971Z,31.90
2018-11-23T21:25:24.249Z,32.80
2018-11-23T21:27:53.989Z,32.23
2018-11-23T21:30:24.604Z,32.42
2018-11-23T21:32:56.985Z,32.17
2018-11-23T21:35:26.660Z,32.63
2018-11-23T21:37:56.360Z,31.82
2018-11-23T21:40:25.941Z,32.53
2018-11-23T21:42:55.755Z,32.90
2018-11-23T21:45:25.024Z,32.58
2018-11-23T21:47:54.429Z,31.70
2018-11-23T21:50:25.563Z,33.25
2018-11-23T21:52:53.378Z,33.33
2018-11-23T21:55:24.109Z,32.05
2018-11-23T21:57:54.305Z,33.63
2018-11-23T22:00:23.709Z,33.63
2018-11-23T22:02:53.096Z,33.10
2018-11-23T22:05:22.535Z,34.10
2018-11-23T22:07:52.083Z,33.58
2018-11-23T22:10:22.145Z,33.38
2018-11-23T22:12:51.960Z,31.55
2018-11-23T22:15:26.092Z,32.73
2018-11-23T22:17:57.380Z,33.33
2018-11-23T22:20:27.347Z,33.90
2018-11-23T22:22:56.601Z,32.50
2018-11-23T22:25:26.025Z,33.80
2018-11-23T22:27:55.987Z,34.60
2018-11-23T22:30:28.233Z,33.25
2018-11-23T22:32:57.640Z,34.03
2018-11-23T22:35:27.604Z,32.75
2018-11-23T22:37:56.653Z,32.98
2018-11-23T22:40:25.843Z,32.70
2018-11-23T22:42:56.447Z,33.90
2018-11-23T22:45:25.544Z,33.83
2018-11-23T22:47:54.756Z,34.00
2018-11-23T22:50:24.670Z,33.13
2018-11-23T22:52:54.266Z,33.67
2018-11-23T22:55:23.552Z,33.18
2018-11-23T22:57:52.875Z,33.80
2018-11-23T23:00:26.663Z,33.25
2018-11-23T23:02:55.957Z,32.55
2018-11-23T23:05:25.498Z,33.85
2018-11-23T23:07:54.711Z,33.30
2018-11-23T23:10:23.790Z,33.17
2018-11-23T23:12:52.452Z,33.25
2018-11-23T23:15:21.008Z,32.83
2018-11-23T23:17:49.701Z,32.20
2018-11-23T23:20:20.581Z,32.42
2018-11-23T23:22:49.147Z,33.15
2018-11-23T23:25:17.703Z,32.48
2018-11-23T23:27:46.377Z,32.63
2018-11-23T23:30:16.754Z,32.78
2018-11-23T23:32:46.031Z,33.00
2018-11-23T23:35:15.502Z,32.98
2018-11-23T23:37:44.429Z,33.13
2018-11-23T23:40:15.036Z,32.50
2018-11-23T23:42:43.682Z,33.40
2018-11-23T23:45:13.428Z,31.07
2018-11-23T23:47:42.053Z,31.35
2018-11-23T23:50:12.883Z,30.20
2018-11-23T23:52:41.474Z,30.12
2018-11-23T23:55:10.553Z,30.50
2018-11-23T23:57:40.127Z,29.55
